sensor_id;sensor_type;location;lat;lon;timestamp;P1;durP1;ratioP1;P2;durP2;ratioP2
61250;SDS011;47126;47.508;8.590;2024-01-30T00:00:52;61.60;;;17.38;;
61250;SDS011;47126;47.508;8.590;2024-01-30T00:03:18;54.20;;;20.75;;
61250;SDS011;47126;47.508;8.590;2024-01-30T00:05:44;31.63;;;15.65;;
61250;SDS011;47126;47.508;8.590;2024-01-30T00:08:10;37.67;;;15.88;;
61250;SDS011;47126;47.508;8.590;2024-01-30T00:10:36;31.38;;;14.90;;
61250;SDS011;47126;47.508;8.590;2024-01-30T00:13:02;34.40;;;16.85;;
61250;SDS011;47126;47.508;8.590;2024-01-30T00:15:28;40.72;;;17.23;;
61250;SDS011;47126;47.508;8.590;2024-01-30T00:17:54;25.95;;;15.32;;
61250;SDS011;47126;47.508;8.590;2024-01-30T00:20:20;32.80;;;15.07;;
61250;SDS011;47126;47.508;8.590;2024-01-30T00:22:46;55.40;;;17.70;;
61250;SDS011;47126;47.508;8.590;2024-01-30T00:25:12;38.13;;;16.23;;
61250;SDS011;47126;47.508;8.590;2024-01-30T00:27:38;40.33;;;16.35;;
61250;SDS011;47126;47.508;8.590;2024-01-30T00:30:04;38.00;;;15.75;;
61250;SDS011;47126;47.508;8.590;2024-01-30T00:32:31;42.78;;;15.43;;
61250;SDS011;47126;47.508;8.590;2024-01-30T00:34:57;39.17;;;16.17;;
61250;SDS011;47126;47.508;8.590;2024-01-30T00:37:23;36.42;;;16.42;;
61250;SDS011;47126;47.508;8.590;2024-01-30T00:39:49;51.38;;;15.82;;
61250;SDS011;47126;47.508;8.590;2024-01-30T00:42:15;44.83;;;17.27;;
61250;SDS011;47126;47.508;8.590;2024-01-30T00:44:41;90.63;;;19.45;;
61250;SDS011;47126;47.508;8.590;2024-01-30T00:47:07;39.50;;;17.20;;
61250;SDS011;47126;47.508;8.590;2024-01-30T00:49:33;45.75;;;17.77;;
61250;SDS011;47126;47.508;8.590;2024-01-30T00:52:00;40.63;;;18.23;;
61250;SDS011;47126;47.508;8.590;2024-01-30T00:54:26;50.83;;;17.33;;
61250;SDS011;47126;47.508;8.590;2024-01-30T00:56:52;72.88;;;18.33;;
61250;SDS011;47126;47.508;8.590;2024-01-30T00:59:18;70.63;;;17.00;;
61250;SDS011;47126;47.508;8.590;2024-01-30T01:01:44;52.33;;;18.10;;
61250;SDS011;47126;47.508;8.590;2024-01-30T01:04:10;35.05;;;18.17;;
61250;SDS011;47126;47.508;8.590;2024-01-30T01:06:36;39.90;;;17.98;;
61250;SDS011;47126;47.508;8.590;2024-01-30T01:09:02;44.72;;;16.83;;
61250;SDS011;47126;47.508;8.590;2024-01-30T01:11:28;39.15;;;16.00;;
61250;SDS011;47126;47.508;8.590;2024-01-30T01:13:54;67.22;;;20.00;;
61250;SDS011;47126;47.508;8.590;2024-01-30T01:16:20;38.67;;;15.40;;
61250;SDS011;47126;47.508;8.590;2024-01-30T01:18:46;27.73;;;16.88;;
61250;SDS011;47126;47.508;8.590;2024-01-30T01:21:12;34.65;;;14.98;;
61250;SDS011;47126;47.508;8.590;2024-01-30T01:23:38;26.70;;;14.68;;
61250;SDS011;47126;47.508;8.590;2024-01-30T01:26:04;31.85;;;16.73;;
61250;SDS011;47126;47.508;8.590;2024-01-30T01:28:30;35.00;;;16.05;;
61250;SDS011;47126;47.508;8.590;2024-01-30T01:30:56;31.30;;;17.45;;
61250;SDS011;47126;47.508;8.590;2024-01-30T01:33:29;28.45;;;15.48;;
61250;SDS011;47126;47.508;8.590;2024-01-30T01:35:57;41.90;;;18.45;;
61250;SDS011;47126;47.508;8.590;2024-01-30T01:38:23;35.47;;;15.10;;
61250;SDS011;47126;47.508;8.590;2024-01-30T01:40:49;40.42;;;15.63;;
61250;SDS011;47126;47.508;8.590;2024-01-30T01:43:16;49.88;;;15.57;;
61250;SDS011;47126;47.508;8.590;2024-01-30T01:45:42;31.27;;;13.75;;
61250;SDS011;47126;47.508;8.590;2024-01-30T01:48:08;33.15;;;15.50;;
61250;SDS011;47126;47.508;8.590;2024-01-30T01:50:34;33.47;;;14.13;;
61250;SDS011;47126;47.508;8.590;2024-01-30T01:53:01;31.30;;;14.43;;
61250;SDS011;47126;47.508;8.590;2024-01-30T01:55:27;29.10;;;16.05;;
61250;SDS011;47126;47.508;8.590;2024-01-30T01:57:54;36.30;;;15.88;;
61250;SDS011;47126;47.508;8.590;2024-01-30T02:00:21;53.33;;;16.60;;
61250;SDS011;47126;47.508;8.590;2024-01-30T02:02:47;57.05;;;16.52;;
61250;SDS011;47126;47.508;8.590;2024-01-30T02:05:14;46.38;;;16.65;;
61250;SDS011;47126;47.508;8.590;2024-01-30T02:07:40;24.92;;;13.05;;
61250;SDS011;47126;47.508;8.590;2024-01-30T02:10:07;37.88;;;14.85;;
61250;SDS011;47126;47.508;8.590;2024-01-30T02:12:34;38.03;;;13.55;;
61250;SDS011;47126;47.508;8.590;2024-01-30T02:15:00;32.97;;;13.25;;
61250;SDS011;47126;47.508;8.590;2024-01-30T02:17:26;65.50;;;15.27;;
61250;SDS011;47126;47.508;8.590;2024-01-30T02:19:52;35.20;;;16.15;;
61250;SDS011;47126;47.508;8.590;2024-01-30T02:22:19;29.25;;;14.48;;
61250;SDS011;47126;47.508;8.590;2024-01-30T02:24:45;45.00;;;14.98;;
61250;SDS011;47126;47.508;8.590;2024-01-30T02:27:11;35.13;;;14.48;;
61250;SDS011;47126;47.508;8.590;2024-01-30T02:29:37;43.92;;;13.80;;
61250;SDS011;47126;47.508;8.590;2024-01-30T02:32:04;81.00;;;15.68;;
61250;SDS011;47126;47.508;8.590;2024-01-30T02:34:30;63.55;;;15.57;;
61250;SDS011;47126;47.508;8.590;2024-01-30T02:36:56;39.63;;;15.55;;
61250;SDS011;47126;47.508;8.590;2024-01-30T02:39:22;65.78;;;14.93;;
61250;SDS011;47126;47.508;8.590;2024-01-30T02:41:48;60.97;;;14.40;;
61250;SDS011;47126;47.508;8.590;2024-01-30T02:44:14;30.70;;;13.10;;
61250;SDS011;47126;47.508;8.590;2024-01-30T02:46:40;35.53;;;14.00;;
61250;SDS011;47126;47.508;8.590;2024-01-30T02:49:06;48.30;;;15.85;;
61250;SDS011;47126;47.508;8.590;2024-01-30T02:51:32;56.47;;;18.20;;
61250;SDS011;47126;47.508;8.590;2024-01-30T02:53:58;29.77;;;17.77;;
61250;SDS011;47126;47.508;8.590;2024-01-30T02:56:24;50.67;;;18.55;;
61250;SDS011;47126;47.508;8.590;2024-01-30T02:58:50;45.53;;;18.33;;
61250;SDS011;47126;47.508;8.590;2024-01-30T03:01:16;44.92;;;16.83;;
61250;SDS011;47126;47.508;8.590;2024-01-30T03:03:43;48.28;;;15.10;;
61250;SDS011;47126;47.508;8.590;2024-01-30T03:06:09;36.20;;;13.38;;
61250;SDS011;47126;47.508;8.590;2024-01-30T03:08:35;76.15;;;14.93;;
61250;SDS011;47126;47.508;8.590;2024-01-30T03:11:01;45.53;;;14.20;;
61250;SDS011;47126;47.508;8.590;2024-01-30T03:13:27;40.45;;;13.85;;
61250;SDS011;47126;47.508;8.590;2024-01-30T03:15:53;51.22;;;14.48;;
61250;SDS011;47126;47.508;8.590;2024-01-30T03:18:19;31.73;;;12.30;;
61250;SDS011;47126;47.508;8.590;2024-01-30T03:20:45;41.40;;;11.30;;
61250;SDS011;47126;47.508;8.590;2024-01-30T03:23:11;37.88;;;14.65;;
61250;SDS011;47126;47.508;8.590;2024-01-30T03:25:37;39.97;;;12.70;;
61250;SDS011;47126;47.508;8.590;2024-01-30T03:28:03;30.35;;;11.85;;
61250;SDS011;47126;47.508;8.590;2024-01-30T03:30:29;29.92;;;13.63;;
61250;SDS011;47126;47.508;8.590;2024-01-30T03:32:55;43.83;;;14.95;;
61250;SDS011;47126;47.508;8.590;2024-01-30T03:35:21;31.60;;;11.35;;
61250;SDS011;47126;47.508;8.590;2024-01-30T03:37:47;61.58;;;15.52;;
61250;SDS011;47126;47.508;8.590;2024-01-30T03:40:13;37.00;;;11.48;;
61250;SDS011;47126;47.508;8.590;2024-01-30T03:42:40;49.25;;;14.05;;
61250;SDS011;47126;47.508;8.590;2024-01-30T03:45:06;33.45;;;11.63;;
61250;SDS011;47126;47.508;8.590;2024-01-30T03:47:32;31.88;;;13.35;;
61250;SDS011;47126;47.508;8.590;2024-01-30T03:49:58;24.52;;;11.65;;
61250;SDS011;47126;47.508;8.590;2024-01-30T03:52:24;36.63;;;12.75;;
61250;SDS011;47126;47.508;8.590;2024-01-30T03:54:50;34.17;;;12.32;;
61250;SDS011;47126;47.508;8.590;2024-01-30T03:57:17;33.40;;;14.13;;
61250;SDS011;47126;47.508;8.590;2024-01-30T03:59:43;26.67;;;13.10;;
61250;SDS011;47126;47.508;8.590;2024-01-30T04:02:12;35.22;;;12.65;;
61250;SDS011;47126;47.508;8.590;2024-01-30T04:04:38;29.60;;;12.93;;
61250;SDS011;47126;47.508;8.590;2024-01-30T04:07:04;30.05;;;12.98;;
61250;SDS011;47126;47.508;8.590;2024-01-30T04:09:30;39.78;;;13.30;;
61250;SDS011;47126;47.508;8.590;2024-01-30T04:11:57;46.00;;;13.40;;
61250;SDS011;47126;47.508;8.590;2024-01-30T04:14:23;40.33;;;13.30;;
61250;SDS011;47126;47.508;8.590;2024-01-30T04:16:49;38.47;;;13.48;;
61250;SDS011;47126;47.508;8.590;2024-01-30T04:19:15;41.85;;;13.77;;
61250;SDS011;47126;47.508;8.590;2024-01-30T04:21:41;41.88;;;12.68;;
61250;SDS011;47126;47.508;8.590;2024-01-30T04:24:07;20.67;;;11.75;;
61250;SDS011;47126;47.508;8.590;2024-01-30T04:26:33;27.55;;;12.98;;
61250;SDS011;47126;47.508;8.590;2024-01-30T04:28:59;30.58;;;12.50;;
61250;SDS011;47126;47.508;8.590;2024-01-30T04:31:25;47.40;;;15.82;;
61250;SDS011;47126;47.508;8.590;2024-01-30T04:33:51;39.35;;;15.30;;
61250;SDS011;47126;47.508;8.590;2024-01-30T04:36:17;32.78;;;11.52;;
61250;SDS011;47126;47.508;8.590;2024-01-30T04:38:43;39.70;;;12.07;;
61250;SDS011;47126;47.508;8.590;2024-01-30T04:41:09;31.85;;;11.55;;
61250;SDS011;47126;47.508;8.590;2024-01-30T04:43:35;40.50;;;13.07;;
61250;SDS011;47126;47.508;8.590;2024-01-30T04:46:01;32.28;;;12.40;;
61250;SDS011;47126;47.508;8.590;2024-01-30T04:48:28;38.40;;;11.48;;
61250;SDS011;47126;47.508;8.590;2024-01-30T04:50:54;36.58;;;11.70;;
61250;SDS011;47126;47.508;8.590;2024-01-30T04:53:21;37.92;;;12.30;;
61250;SDS011;47126;47.508;8.590;2024-01-30T04:55:47;37.17;;;11.75;;
61250;SDS011;47126;47.508;8.590;2024-01-30T04:58:13;26.58;;;12.43;;
61250;SDS011;47126;47.508;8.590;2024-01-30T05:00:39;26.20;;;11.75;;
61250;SDS011;47126;47.508;8.590;2024-01-30T05:03:05;27.52;;;12.93;;
61250;SDS011;47126;47.508;8.590;2024-01-30T05:05:31;29.45;;;12.70;;
61250;SDS011;47126;47.508;8.590;2024-01-30T05:07:57;28.67;;;12.00;;
61250;SDS011;47126;47.508;8.590;2024-01-30T05:10:23;40.25;;;14.05;;
61250;SDS011;47126;47.508;8.590;2024-01-30T05:12:49;21.85;;;12.27;;
61250;SDS011;47126;47.508;8.590;2024-01-30T05:15:15;25.00;;;12.70;;
61250;SDS011;47126;47.508;8.590;2024-01-30T05:17:41;26.70;;;12.70;;
61250;SDS011;47126;47.508;8.590;2024-01-30T05:20:07;48.97;;;16.27;;
61250;SDS011;47126;47.508;8.590;2024-01-30T05:22:34;31.15;;;12.90;;
61250;SDS011;47126;47.508;8.590;2024-01-30T05:25:00;31.27;;;12.18;;
61250;SDS011;47126;47.508;8.590;2024-01-30T05:27:26;37.53;;;12.25;;
61250;SDS011;47126;47.508;8.590;2024-01-30T05:29:52;27.75;;;11.43;;
61250;SDS011;47126;47.508;8.590;2024-01-30T05:32:18;21.75;;;11.57;;
61250;SDS011;47126;47.508;8.590;2024-01-30T05:34:44;30.95;;;10.90;;
61250;SDS011;47126;47.508;8.590;2024-01-30T05:37:10;28.85;;;10.45;;
61250;SDS011;47126;47.508;8.590;2024-01-30T05:39:39;34.00;;;11.43;;
61250;SDS011;47126;47.508;8.590;2024-01-30T05:42:08;27.05;;;11.00;;
61250;SDS011;47126;47.508;8.590;2024-01-30T05:44:35;28.17;;;11.73;;
61250;SDS011;47126;47.508;8.590;2024-01-30T05:47:01;36.70;;;13.85;;
61250;SDS011;47126;47.508;8.590;2024-01-30T05:49:27;31.98;;;10.65;;
61250;SDS011;47126;47.508;8.590;2024-01-30T05:51:53;26.67;;;12.15;;
61250;SDS011;47126;47.508;8.590;2024-01-30T05:54:19;39.83;;;14.10;;
61250;SDS011;47126;47.508;8.590;2024-01-30T05:56:45;34.63;;;12.55;;
61250;SDS011;47126;47.508;8.590;2024-01-30T05:59:11;34.13;;;14.38;;
61250;SDS011;47126;47.508;8.590;2024-01-30T06:01:37;33.00;;;15.15;;
61250;SDS011;47126;47.508;8.590;2024-01-30T06:04:03;34.40;;;14.98;;
61250;SDS011;47126;47.508;8.590;2024-01-30T06:06:29;38.88;;;13.85;;
61250;SDS011;47126;47.508;8.590;2024-01-30T06:08:55;36.03;;;17.92;;
61250;SDS011;47126;47.508;8.590;2024-01-30T06:11:21;31.33;;;13.48;;
61250;SDS011;47126;47.508;8.590;2024-01-30T06:13:47;25.75;;;12.95;;
61250;SDS011;47126;47.508;8.590;2024-01-30T06:16:13;27.55;;;12.77;;
61250;SDS011;47126;47.508;8.590;2024-01-30T06:18:40;23.67;;;13.32;;
61250;SDS011;47126;47.508;8.590;2024-01-30T06:21:06;31.80;;;14.70;;
61250;SDS011;47126;47.508;8.590;2024-01-30T06:23:32;27.25;;;15.00;;
61250;SDS011;47126;47.508;8.590;2024-01-30T06:25:58;27.00;;;14.23;;
61250;SDS011;47126;47.508;8.590;2024-01-30T06:28:24;24.60;;;13.93;;
61250;SDS011;47126;47.508;8.590;2024-01-30T06:30:53;34.70;;;15.88;;
61250;SDS011;47126;47.508;8.590;2024-01-30T06:33:19;24.23;;;14.32;;
61250;SDS011;47126;47.508;8.590;2024-01-30T06:35:45;21.08;;;12.90;;
61250;SDS011;47126;47.508;8.590;2024-01-30T06:38:11;21.40;;;13.18;;
61250;SDS011;47126;47.508;8.590;2024-01-30T06:40:38;24.45;;;13.95;;
61250;SDS011;47126;47.508;8.590;2024-01-30T06:43:04;25.08;;;14.75;;
61250;SDS011;47126;47.508;8.590;2024-01-30T06:45:30;22.58;;;13.73;;
61250;SDS011;47126;47.508;8.590;2024-01-30T06:47:56;26.98;;;13.63;;
61250;SDS011;47126;47.508;8.590;2024-01-30T06:50:22;26.25;;;13.88;;
61250;SDS011;47126;47.508;8.590;2024-01-30T06:52:48;26.65;;;14.18;;
61250;SDS011;47126;47.508;8.590;2024-01-30T06:55:14;24.08;;;14.00;;
61250;SDS011;47126;47.508;8.590;2024-01-30T06:57:40;26.90;;;14.18;;
61250;SDS011;47126;47.508;8.590;2024-01-30T07:00:06;26.40;;;13.65;;
61250;SDS011;47126;47.508;8.590;2024-01-30T07:02:33;22.25;;;14.68;;
61250;SDS011;47126;47.508;8.590;2024-01-30T07:04:59;24.42;;;13.55;;
61250;SDS011;47126;47.508;8.590;2024-01-30T07:07:25;26.42;;;12.27;;
61250;SDS011;47126;47.508;8.590;2024-01-30T07:09:52;22.20;;;13.25;;
61250;SDS011;47126;47.508;8.590;2024-01-30T07:12:21;19.13;;;11.80;;
61250;SDS011;47126;47.508;8.590;2024-01-30T07:14:47;19.88;;;11.93;;
61250;SDS011;47126;47.508;8.590;2024-01-30T07:17:13;22.30;;;11.65;;
61250;SDS011;47126;47.508;8.590;2024-01-30T07:19:39;22.38;;;13.07;;
61250;SDS011;47126;47.508;8.590;2024-01-30T07:22:05;23.70;;;13.45;;
61250;SDS011;47126;47.508;8.590;2024-01-30T07:24:31;24.52;;;14.25;;
61250;SDS011;47126;47.508;8.590;2024-01-30T07:26:58;25.80;;;14.32;;
61250;SDS011;47126;47.508;8.590;2024-01-30T07:29:24;29.45;;;16.60;;
61250;SDS011;47126;47.508;8.590;2024-01-30T07:31:50;30.27;;;15.43;;
61250;SDS011;47126;47.508;8.590;2024-01-30T07:34:16;29.35;;;17.13;;
61250;SDS011;47126;47.508;8.590;2024-01-30T07:36:42;26.23;;;15.18;;
61250;SDS011;47126;47.508;8.590;2024-01-30T07:39:08;29.42;;;17.30;;
61250;SDS011;47126;47.508;8.590;2024-01-30T07:41:35;29.95;;;17.20;;
61250;SDS011;47126;47.508;8.590;2024-01-30T07:44:04;37.97;;;22.65;;
61250;SDS011;47126;47.508;8.590;2024-01-30T07:46:30;49.22;;;27.60;;
61250;SDS011;47126;47.508;8.590;2024-01-30T07:48:59;45.28;;;28.83;;
61250;SDS011;47126;47.508;8.590;2024-01-30T07:51:26;45.83;;;27.00;;
61250;SDS011;47126;47.508;8.590;2024-01-30T07:53:54;41.90;;;21.42;;
61250;SDS011;47126;47.508;8.590;2024-01-30T07:56:23;32.78;;;17.60;;
61250;SDS011;47126;47.508;8.590;2024-01-30T07:58:51;47.63;;;28.80;;
61250;SDS011;47126;47.508;8.590;2024-01-30T08:01:18;40.78;;;23.23;;
61250;SDS011;47126;47.508;8.590;2024-01-30T08:03:44;33.67;;;18.20;;
61250;SDS011;47126;47.508;8.590;2024-01-30T08:06:10;32.42;;;17.80;;
61250;SDS011;47126;47.508;8.590;2024-01-30T08:08:37;27.77;;;16.45;;
61250;SDS011;47126;47.508;8.590;2024-01-30T08:11:03;32.03;;;19.08;;
61250;SDS011;47126;47.508;8.590;2024-01-30T08:13:29;31.48;;;19.92;;
61250;SDS011;47126;47.508;8.590;2024-01-30T08:15:55;38.45;;;23.50;;
61250;SDS011;47126;47.508;8.590;2024-01-30T08:18:21;31.85;;;20.90;;
61250;SDS011;47126;47.508;8.590;2024-01-30T08:20:47;33.33;;;21.27;;
61250;SDS011;47126;47.508;8.590;2024-01-30T08:23:14;39.80;;;22.88;;
61250;SDS011;47126;47.508;8.590;2024-01-30T08:25:40;38.90;;;20.25;;
61250;SDS011;47126;47.508;8.590;2024-01-30T08:28:06;37.05;;;21.13;;
61250;SDS011;47126;47.508;8.590;2024-01-30T08:30:33;37.97;;;22.73;;
61250;SDS011;47126;47.508;8.590;2024-01-30T08:32:59;36.33;;;22.23;;
61250;SDS011;47126;47.508;8.590;2024-01-30T08:35:25;33.50;;;21.17;;
61250;SDS011;47126;47.508;8.590;2024-01-30T08:37:51;33.10;;;20.75;;
61250;SDS011;47126;47.508;8.590;2024-01-30T08:40:19;37.13;;;19.98;;
61250;SDS011;47126;47.508;8.590;2024-01-30T08:42:45;34.97;;;20.13;;
61250;SDS011;47126;47.508;8.590;2024-01-30T08:45:14;23.70;;;15.93;;
61250;SDS011;47126;47.508;8.590;2024-01-30T08:47:40;30.02;;;19.17;;
61250;SDS011;47126;47.508;8.590;2024-01-30T08:50:06;27.48;;;17.10;;
61250;SDS011;47126;47.508;8.590;2024-01-30T08:52:33;22.55;;;15.18;;
61250;SDS011;47126;47.508;8.590;2024-01-30T08:54:59;23.02;;;16.05;;
61250;SDS011;47126;47.508;8.590;2024-01-30T08:57:25;24.30;;;15.80;;
61250;SDS011;47126;47.508;8.590;2024-01-30T08:59:53;21.55;;;14.35;;
61250;SDS011;47126;47.508;8.590;2024-01-30T09:02:20;20.90;;;15.20;;
61250;SDS011;47126;47.508;8.590;2024-01-30T09:04:46;28.65;;;17.17;;
61250;SDS011;47126;47.508;8.590;2024-01-30T09:07:12;35.03;;;21.20;;
61250;SDS011;47126;47.508;8.590;2024-01-30T09:09:39;33.97;;;22.30;;
61250;SDS011;47126;47.508;8.590;2024-01-30T09:12:08;30.70;;;18.13;;
61250;SDS011;47126;47.508;8.590;2024-01-30T09:14:37;30.88;;;18.38;;
61250;SDS011;47126;47.508;8.590;2024-01-30T09:17:03;26.23;;;16.50;;
61250;SDS011;47126;47.508;8.590;2024-01-30T09:19:29;33.20;;;19.73;;
61250;SDS011;47126;47.508;8.590;2024-01-30T09:21:56;33.33;;;19.90;;
61250;SDS011;47126;47.508;8.590;2024-01-30T09:24:22;34.42;;;21.33;;
61250;SDS011;47126;47.508;8.590;2024-01-30T09:26:48;31.52;;;19.63;;
61250;SDS011;47126;47.508;8.590;2024-01-30T09:29:14;32.88;;;18.73;;
61250;SDS011;47126;47.508;8.590;2024-01-30T09:31:42;27.95;;;16.25;;
61250;SDS011;47126;47.508;8.590;2024-01-30T09:34:08;23.95;;;14.70;;
61250;SDS011;47126;47.508;8.590;2024-01-30T09:36:36;23.13;;;14.40;;
61250;SDS011;47126;47.508;8.590;2024-01-30T09:39:02;28.45;;;14.88;;
61250;SDS011;47126;47.508;8.590;2024-01-30T09:41:29;18.02;;;11.60;;
61250;SDS011;47126;47.508;8.590;2024-01-30T09:43:56;22.60;;;10.93;;
61250;SDS011;47126;47.508;8.590;2024-01-30T09:46:23;17.50;;;11.88;;
61250;SDS011;47126;47.508;8.590;2024-01-30T09:48:55;25.20;;;13.32;;
61250;SDS011;47126;47.508;8.590;2024-01-30T09:51:21;24.70;;;12.65;;
61250;SDS011;47126;47.508;8.590;2024-01-30T09:53:48;21.88;;;12.38;;
61250;SDS011;47126;47.508;8.590;2024-01-30T09:56:14;21.63;;;12.00;;
61250;SDS011;47126;47.508;8.590;2024-01-30T09:58:40;21.55;;;11.77;;
61250;SDS011;47126;47.508;8.590;2024-01-30T10:01:07;16.95;;;10.60;;
61250;SDS011;47126;47.508;8.590;2024-01-30T10:03:36;21.02;;;11.45;;
61250;SDS011;47126;47.508;8.590;2024-01-30T10:06:02;21.15;;;11.82;;
61250;SDS011;47126;47.508;8.590;2024-01-30T10:08:28;17.05;;;10.75;;
61250;SDS011;47126;47.508;8.590;2024-01-30T10:10:54;15.80;;;10.63;;
61250;SDS011;47126;47.508;8.590;2024-01-30T10:13:20;18.27;;;11.00;;
61250;SDS011;47126;47.508;8.590;2024-01-30T10:15:49;16.58;;;10.95;;
61250;SDS011;47126;47.508;8.590;2024-01-30T10:18:17;16.45;;;10.52;;
61250;SDS011;47126;47.508;8.590;2024-01-30T10:20:43;17.23;;;9.98;;
61250;SDS011;47126;47.508;8.590;2024-01-30T10:23:09;17.17;;;10.82;;
61250;SDS011;47126;47.508;8.590;2024-01-30T10:25:35;17.52;;;11.07;;
61250;SDS011;47126;47.508;8.590;2024-01-30T10:28:01;19.65;;;10.48;;
61250;SDS011;47126;47.508;8.590;2024-01-30T10:30:27;19.85;;;11.52;;
61250;SDS011;47126;47.508;8.590;2024-01-30T10:32:53;17.58;;;11.20;;
61250;SDS011;47126;47.508;8.590;2024-01-30T10:35:19;19.80;;;10.60;;
61250;SDS011;47126;47.508;8.590;2024-01-30T10:37:49;20.08;;;10.32;;
61250;SDS011;47126;47.508;8.590;2024-01-30T10:40:15;16.55;;;10.48;;
61250;SDS011;47126;47.508;8.590;2024-01-30T10:42:42;16.83;;;10.73;;
61250;SDS011;47126;47.508;8.590;2024-01-30T10:45:11;16.63;;;9.73;;
61250;SDS011;47126;47.508;8.590;2024-01-30T10:47:52;20.43;;;9.93;;
61250;SDS011;47126;47.508;8.590;2024-01-30T10:50:24;17.75;;;10.98;;
61250;SDS011;47126;47.508;8.590;2024-01-30T10:52:50;22.70;;;11.02;;
61250;SDS011;47126;47.508;8.590;2024-01-30T10:55:17;19.17;;;10.13;;
61250;SDS011;47126;47.508;8.590;2024-01-30T10:57:44;19.85;;;9.57;;
61250;SDS011;47126;47.508;8.590;2024-01-30T11:00:14;17.27;;;9.43;;
61250;SDS011;47126;47.508;8.590;2024-01-30T11:02:44;18.30;;;9.45;;
61250;SDS011;47126;47.508;8.590;2024-01-30T11:05:11;18.90;;;9.73;;
61250;SDS011;47126;47.508;8.590;2024-01-30T11:07:39;21.95;;;9.90;;
61250;SDS011;47126;47.508;8.590;2024-01-30T11:10:08;23.55;;;9.48;;
61250;SDS011;47126;47.508;8.590;2024-01-30T11:12:43;19.98;;;9.25;;
61250;SDS011;47126;47.508;8.590;2024-01-30T11:15:14;20.23;;;9.02;;
61250;SDS011;47126;47.508;8.590;2024-01-30T11:17:53;15.70;;;9.18;;
61250;SDS011;47126;47.508;8.590;2024-01-30T11:20:25;16.77;;;8.68;;
61250;SDS011;47126;47.508;8.590;2024-01-30T11:22:52;17.58;;;9.38;;
61250;SDS011;47126;47.508;8.590;2024-01-30T11:25:22;16.48;;;9.60;;
61250;SDS011;47126;47.508;8.590;2024-01-30T11:27:54;18.40;;;10.57;;
61250;SDS011;47126;47.508;8.590;2024-01-30T11:30:21;22.20;;;9.68;;
61250;SDS011;47126;47.508;8.590;2024-01-30T11:35:34;15.98;;;9.85;;
61250;SDS011;47126;47.508;8.590;2024-01-30T11:38:01;17.55;;;9.52;;
61250;SDS011;47126;47.508;8.590;2024-01-30T11:40:27;23.15;;;11.55;;
61250;SDS011;47126;47.508;8.590;2024-01-30T11:42:54;28.80;;;17.92;;
61250;SDS011;47126;47.508;8.590;2024-01-30T11:45:20;20.17;;;13.73;;
61250;SDS011;47126;47.508;8.590;2024-01-30T11:47:46;16.92;;;10.07;;
61250;SDS011;47126;47.508;8.590;2024-01-30T11:50:13;17.88;;;10.05;;
61250;SDS011;47126;47.508;8.590;2024-01-30T11:52:39;16.30;;;10.55;;
61250;SDS011;47126;47.508;8.590;2024-01-30T11:55:05;16.33;;;9.30;;
61250;SDS011;47126;47.508;8.590;2024-01-30T11:57:33;18.52;;;8.95;;
61250;SDS011;47126;47.508;8.590;2024-01-30T12:00:01;16.58;;;8.70;;
61250;SDS011;47126;47.508;8.590;2024-01-30T12:02:29;14.80;;;8.70;;
61250;SDS011;47126;47.508;8.590;2024-01-30T12:04:55;14.70;;;8.95;;
61250;SDS011;47126;47.508;8.590;2024-01-30T12:07:21;13.82;;;9.43;;
61250;SDS011;47126;47.508;8.590;2024-01-30T12:09:53;13.85;;;8.40;;
61250;SDS011;47126;47.508;8.590;2024-01-30T12:12:21;16.55;;;8.90;;
61250;SDS011;47126;47.508;8.590;2024-01-30T12:14:47;16.00;;;9.20;;
61250;SDS011;47126;47.508;8.590;2024-01-30T12:17:22;17.08;;;9.68;;
61250;SDS011;47126;47.508;8.590;2024-01-30T12:19:49;16.08;;;9.60;;
61250;SDS011;47126;47.508;8.590;2024-01-30T12:22:14;15.50;;;10.20;;
61250;SDS011;47126;47.508;8.590;2024-01-30T12:24:41;15.60;;;9.95;;
61250;SDS011;47126;47.508;8.590;2024-01-30T12:27:07;15.18;;;9.75;;
61250;SDS011;47126;47.508;8.590;2024-01-30T12:29:33;16.23;;;9.65;;
61250;SDS011;47126;47.508;8.590;2024-01-30T12:31:59;16.42;;;9.75;;
61250;SDS011;47126;47.508;8.590;2024-01-30T12:34:25;15.00;;;9.02;;
61250;SDS011;47126;47.508;8.590;2024-01-30T12:36:51;16.58;;;9.50;;
61250;SDS011;47126;47.508;8.590;2024-01-30T12:39:17;16.67;;;9.70;;
61250;SDS011;47126;47.508;8.590;2024-01-30T12:41:43;13.45;;;8.45;;
61250;SDS011;47126;47.508;8.590;2024-01-30T12:44:09;19.05;;;9.02;;
61250;SDS011;47126;47.508;8.590;2024-01-30T12:46:35;15.23;;;9.43;;
61250;SDS011;47126;47.508;8.590;2024-01-30T12:49:02;15.55;;;9.35;;
61250;SDS011;47126;47.508;8.590;2024-01-30T12:51:28;14.32;;;9.07;;
61250;SDS011;47126;47.508;8.590;2024-01-30T12:53:54;16.70;;;9.77;;
61250;SDS011;47126;47.508;8.590;2024-01-30T12:56:20;16.50;;;9.55;;
61250;SDS011;47126;47.508;8.590;2024-01-30T12:58:46;15.40;;;9.13;;
61250;SDS011;47126;47.508;8.590;2024-01-30T13:01:12;16.25;;;9.57;;
61250;SDS011;47126;47.508;8.590;2024-01-30T13:03:38;17.70;;;8.80;;
61250;SDS011;47126;47.508;8.590;2024-01-30T13:06:04;16.92;;;9.50;;
61250;SDS011;47126;47.508;8.590;2024-01-30T13:08:31;15.63;;;9.25;;
61250;SDS011;47126;47.508;8.590;2024-01-30T13:10:57;14.18;;;9.63;;
61250;SDS011;47126;47.508;8.590;2024-01-30T13:13:22;16.63;;;8.82;;
61250;SDS011;47126;47.508;8.590;2024-01-30T13:15:48;13.65;;;9.30;;
61250;SDS011;47126;47.508;8.590;2024-01-30T13:18:14;14.07;;;8.88;;
61250;SDS011;47126;47.508;8.590;2024-01-30T13:20:43;17.08;;;9.00;;
61250;SDS011;47126;47.508;8.590;2024-01-30T13:23:09;14.63;;;8.85;;
61250;SDS011;47126;47.508;8.590;2024-01-30T13:25:35;25.83;;;9.55;;
61250;SDS011;47126;47.508;8.590;2024-01-30T13:28:01;14.63;;;9.35;;
61250;SDS011;47126;47.508;8.590;2024-01-30T13:30:27;15.85;;;9.00;;
61250;SDS011;47126;47.508;8.590;2024-01-30T13:32:53;15.23;;;9.18;;
61250;SDS011;47126;47.508;8.590;2024-01-30T13:35:19;14.77;;;10.57;;
61250;SDS011;47126;47.508;8.590;2024-01-30T13:37:46;13.13;;;9.00;;
61250;SDS011;47126;47.508;8.590;2024-01-30T13:40:13;16.25;;;9.57;;
61250;SDS011;47126;47.508;8.590;2024-01-30T13:42:41;16.05;;;9.02;;
61250;SDS011;47126;47.508;8.590;2024-01-30T13:45:07;17.42;;;8.80;;
61250;SDS011;47126;47.508;8.590;2024-01-30T13:47:34;13.48;;;8.68;;
61250;SDS011;47126;47.508;8.590;2024-01-30T13:50:00;17.38;;;11.02;;
61250;SDS011;47126;47.508;8.590;2024-01-30T13:52:27;15.30;;;10.23;;
61250;SDS011;47126;47.508;8.590;2024-01-30T13:54:53;14.23;;;8.68;;
61250;SDS011;47126;47.508;8.590;2024-01-30T13:57:19;14.63;;;9.55;;
61250;SDS011;47126;47.508;8.590;2024-01-30T13:59:45;20.38;;;12.30;;
61250;SDS011;47126;47.508;8.590;2024-01-30T14:02:11;16.58;;;11.25;;
61250;SDS011;47126;47.508;8.590;2024-01-30T14:04:37;16.88;;;9.43;;
61250;SDS011;47126;47.508;8.590;2024-01-30T14:07:04;18.10;;;9.65;;
61250;SDS011;47126;47.508;8.590;2024-01-30T14:09:33;13.52;;;9.07;;
61250;SDS011;47126;47.508;8.590;2024-01-30T14:11:59;16.45;;;10.32;;
61250;SDS011;47126;47.508;8.590;2024-01-30T14:14:25;22.23;;;13.18;;
61250;SDS011;47126;47.508;8.590;2024-01-30T14:16:51;21.20;;;12.88;;
61250;SDS011;47126;47.508;8.590;2024-01-30T14:19:17;18.77;;;11.50;;
61250;SDS011;47126;47.508;8.590;2024-01-30T14:21:46;18.58;;;11.43;;